sensor_id;sensor_type;location;lat;lon;timestamp;P1;durP1;ratioP1;P2;durP2;ratioP2
21802;SDS011;18591;47.080;22.214;2022-07-03T00:01:24;8.70;;;7.75;;
21802;SDS011;18591;47.080;22.214;2022-07-03T00:03:27;8.43;;;7.63;;
21802;SDS011;18591;47.080;22.214;2022-07-03T00:05:29;8.23;;;7.50;;
21802;SDS011;18591;47.080;22.214;2022-07-03T00:07:31;8.23;;;7.53;;
21802;SDS011;18591;47.080;22.214;2022-07-03T00:09:33;11.05;;;7.68;;
21802;SDS011;18591;47.080;22.214;2022-07-03T00:11:35;9.60;;;8.52;;
21802;SDS011;18591;47.080;22.214;2022-07-03T00:13:37;9.05;;;8.15;;
21802;SDS011;18591;47.080;22.214;2022-07-03T00:15:39;9.00;;;8.07;;
21802;SDS011;18591;47.080;22.214;2022-07-03T00:17:41;9.88;;;8.88;;
21802;SDS011;18591;47.080;22.214;2022-07-03T00:19:43;11.05;;;8.48;;
21802;SDS011;18591;47.080;22.214;2022-07-03T00:21:46;11.88;;;7.75;;
21802;SDS011;18591;47.080;22.214;2022-07-03T00:24:15;7.90;;;7.20;;
21802;SDS011;18591;47.080;22.214;2022-07-03T00:26:23;9.68;;;8.68;;
21802;SDS011;18591;47.080;22.214;2022-07-03T00:28:26;8.82;;;7.93;;
21802;SDS011;18591;47.080;22.214;2022-07-03T00:30:29;11.82;;;9.05;;
21802;SDS011;18591;47.080;22.214;2022-07-03T00:32:31;11.00;;;8.68;;
21802;SDS011;18591;47.080;22.214;2022-07-03T00:34:33;9.25;;;8.07;;
21802;SDS011;18591;47.080;22.214;2022-07-03T00:36:36;9.38;;;8.48;;
21802;SDS011;18591;47.080;22.214;2022-07-03T00:38:39;8.70;;;7.95;;
21802;SDS011;18591;47.080;22.214;2022-07-03T00:40:41;9.25;;;7.75;;
21802;SDS011;18591;47.080;22.214;2022-07-03T00:42:45;8.52;;;7.80;;
21802;SDS011;18591;47.080;22.214;2022-07-03T00:44:51;11.57;;;8.48;;
21802;SDS011;18591;47.080;22.214;2022-07-03T00:46:55;8.90;;;8.10;;
21802;SDS011;18591;47.080;22.214;2022-07-03T00:48:59;8.90;;;7.82;;
21802;SDS011;18591;47.080;22.214;2022-07-03T00:51:05;9.50;;;8.60;;
21802;SDS011;18591;47.080;22.214;2022-07-03T00:53:08;12.40;;;8.57;;
21802;SDS011;18591;47.080;22.214;2022-07-03T00:55:16;10.93;;;9.18;;
21802;SDS011;18591;47.080;22.214;2022-07-03T00:57:20;9.32;;;8.25;;
21802;SDS011;18591;47.080;22.214;2022-07-03T00:59:22;8.90;;;8.02;;
21802;SDS011;18591;47.080;22.214;2022-07-03T01:01:25;7.90;;;7.18;;
21802;SDS011;18591;47.080;22.214;2022-07-03T01:03:32;9.13;;;8.27;;
21802;SDS011;18591;47.080;22.214;2022-07-03T01:05:39;8.80;;;8.10;;
21802;SDS011;18591;47.080;22.214;2022-07-03T01:10:11;10.20;;;8.93;;
21802;SDS011;18591;47.080;22.214;2022-07-03T01:14:55;9.80;;;8.70;;
21802;SDS011;18591;47.080;22.214;2022-07-03T01:17:05;10.02;;;7.82;;
21802;SDS011;18591;47.080;22.214;2022-07-03T01:21:46;9.45;;;8.45;;
21802;SDS011;18591;47.080;22.214;2022-07-03T01:26:04;9.93;;;8.60;;
21802;SDS011;18591;47.080;22.214;2022-07-03T01:28:13;8.23;;;7.43;;
21802;SDS011;18591;47.080;22.214;2022-07-03T01:30:16;9.05;;;8.10;;
21802;SDS011;18591;47.080;22.214;2022-07-03T01:32:23;9.10;;;7.93;;
21802;SDS011;18591;47.080;22.214;2022-07-03T01:34:30;9.30;;;8.48;;
21802;SDS011;18591;47.080;22.214;2022-07-03T01:36:38;9.48;;;8.57;;
21802;SDS011;18591;47.080;22.214;2022-07-03T01:38:43;10.15;;;8.65;;
21802;SDS011;18591;47.080;22.214;2022-07-03T01:40:46;10.98;;;8.43;;
21802;SDS011;18591;47.080;22.214;2022-07-03T01:42:50;9.50;;;8.63;;
21802;SDS011;18591;47.080;22.214;2022-07-03T01:44:53;10.05;;;9.15;;
21802;SDS011;18591;47.080;22.214;2022-07-03T01:46:58;8.82;;;8.02;;
21802;SDS011;18591;47.080;22.214;2022-07-03T01:49:01;8.90;;;8.10;;
21802;SDS011;18591;47.080;22.214;2022-07-03T01:51:08;8.73;;;7.85;;
21802;SDS011;18591;47.080;22.214;2022-07-03T01:53:14;9.40;;;8.43;;
21802;SDS011;18591;47.080;22.214;2022-07-03T01:55:17;10.10;;;9.10;;
21802;SDS011;18591;47.080;22.214;2022-07-03T01:57:22;8.98;;;8.07;;
21802;SDS011;18591;47.080;22.214;2022-07-03T01:59:26;9.07;;;8.18;;
21802;SDS011;18591;47.080;22.214;2022-07-03T02:03:34;10.80;;;9.70;;
21802;SDS011;18591;47.080;22.214;2022-07-03T02:05:43;9.50;;;8.57;;
21802;SDS011;18591;47.080;22.214;2022-07-03T02:08:02;9.05;;;8.18;;
21802;SDS011;18591;47.080;22.214;2022-07-03T02:10:13;9.10;;;8.20;;
21802;SDS011;18591;47.080;22.214;2022-07-03T02:12:18;9.57;;;8.68;;
21802;SDS011;18591;47.080;22.214;2022-07-03T02:14:24;9.40;;;8.48;;
21802;SDS011;18591;47.080;22.214;2022-07-03T02:16:33;8.52;;;7.78;;
21802;SDS011;18591;47.080;22.214;2022-07-03T02:19:11;8.80;;;8.00;;
21802;SDS011;18591;47.080;22.214;2022-07-03T02:21:14;9.48;;;8.45;;
21802;SDS011;18591;47.080;22.214;2022-07-03T02:23:19;8.82;;;8.02;;
21802;SDS011;18591;47.080;22.214;2022-07-03T02:25:34;12.02;;;10.55;;
21802;SDS011;18591;47.080;22.214;2022-07-03T02:27:46;9.98;;;9.00;;
21802;SDS011;18591;47.080;22.214;2022-07-03T02:30:02;11.55;;;8.50;;
21802;SDS011;18591;47.080;22.214;2022-07-03T02:32:07;11.93;;;9.63;;
21802;SDS011;18591;47.080;22.214;2022-07-03T02:34:16;9.02;;;8.00;;
21802;SDS011;18591;47.080;22.214;2022-07-03T02:36:18;9.35;;;8.15;;
21802;SDS011;18591;47.080;22.214;2022-07-03T02:38:23;9.48;;;8.57;;
21802;SDS011;18591;47.080;22.214;2022-07-03T02:42:32;9.10;;;8.20;;
21802;SDS011;18591;47.080;22.214;2022-07-03T02:44:46;9.38;;;8.48;;
21802;SDS011;18591;47.080;22.214;2022-07-03T02:51:28;9.30;;;8.25;;
21802;SDS011;18591;47.080;22.214;2022-07-03T02:53:42;9.20;;;8.00;;
21802;SDS011;18591;47.080;22.214;2022-07-03T02:55:50;9.27;;;7.88;;
21802;SDS011;18591;47.080;22.214;2022-07-03T02:58:41;12.45;;;8.30;;
21802;SDS011;18591;47.080;22.214;2022-07-03T03:00:25;10.18;;;8.60;;
21802;SDS011;18591;47.080;22.214;2022-07-03T03:05:05;9.68;;;8.77;;
21802;SDS011;18591;47.080;22.214;2022-07-03T03:07:14;9.43;;;8.52;;
21802;SDS011;18591;47.080;22.214;2022-07-03T03:09:20;10.27;;;8.65;;
21802;SDS011;18591;47.080;22.214;2022-07-03T03:13:30;8.40;;;7.60;;
21802;SDS011;18591;47.080;22.214;2022-07-03T03:15:34;9.80;;;8.90;;
21802;SDS011;18591;47.080;22.214;2022-07-03T03:17:42;10.43;;;8.07;;
21802;SDS011;18591;47.080;22.214;2022-07-03T03:19:46;9.27;;;8.35;;
21802;SDS011;18591;47.080;22.214;2022-07-03T03:24:31;10.15;;;8.35;;
21802;SDS011;18591;47.080;22.214;2022-07-03T03:26:34;12.23;;;7.82;;
21802;SDS011;18591;47.080;22.214;2022-07-03T03:28:36;8.30;;;7.50;;
21802;SDS011;18591;47.080;22.214;2022-07-03T03:30:39;10.30;;;8.10;;
21802;SDS011;18591;47.080;22.214;2022-07-03T03:32:41;9.63;;;8.73;;
21802;SDS011;18591;47.080;22.214;2022-07-03T03:34:43;13.02;;;8.65;;
21802;SDS011;18591;47.080;22.214;2022-07-03T03:36:47;10.43;;;8.63;;
21802;SDS011;18591;47.080;22.214;2022-07-03T03:38:49;9.68;;;8.70;;
21802;SDS011;18591;47.080;22.214;2022-07-03T03:40:51;13.27;;;8.52;;
21802;SDS011;18591;47.080;22.214;2022-07-03T03:42:53;10.00;;;9.00;;
21802;SDS011;18591;47.080;22.214;2022-07-03T03:44:55;10.55;;;9.38;;
21802;SDS011;18591;47.080;22.214;2022-07-03T03:46:57;10.60;;;9.57;;
21802;SDS011;18591;47.080;22.214;2022-07-03T03:48:59;9.48;;;8.48;;
21802;SDS011;18591;47.080;22.214;2022-07-03T03:51:01;9.95;;;9.05;;
21802;SDS011;18591;47.080;22.214;2022-07-03T03:53:04;10.45;;;9.45;;
21802;SDS011;18591;47.080;22.214;2022-07-03T03:55:06;10.10;;;9.13;;
21802;SDS011;18591;47.080;22.214;2022-07-03T03:57:21;10.40;;;9.13;;
21802;SDS011;18591;47.080;22.214;2022-07-03T03:59:24;15.00;;;8.60;;
21802;SDS011;18591;47.080;22.214;2022-07-03T04:01:26;10.50;;;8.45;;
21802;SDS011;18591;47.080;22.214;2022-07-03T04:03:28;11.25;;;9.65;;
21802;SDS011;18591;47.080;22.214;2022-07-03T04:05:31;8.95;;;8.07;;
21802;SDS011;18591;47.080;22.214;2022-07-03T04:07:33;10.32;;;9.32;;
21802;SDS011;18591;47.080;22.214;2022-07-03T04:09:35;10.88;;;9.10;;
21802;SDS011;18591;47.080;22.214;2022-07-03T04:11:37;9.88;;;8.88;;
21802;SDS011;18591;47.080;22.214;2022-07-03T04:13:39;9.88;;;8.98;;
21802;SDS011;18591;47.080;22.214;2022-07-03T04:15:41;10.77;;;9.70;;
21802;SDS011;18591;47.080;22.214;2022-07-03T04:17:43;9.73;;;8.75;;
21802;SDS011;18591;47.080;22.214;2022-07-03T04:19:45;10.20;;;9.18;;
21802;SDS011;18591;47.080;22.214;2022-07-03T04:21:47;9.75;;;8.85;;
21802;SDS011;18591;47.080;22.214;2022-07-03T04:23:50;10.30;;;9.30;;
21802;SDS011;18591;47.080;22.214;2022-07-03T04:25:52;11.57;;;10.48;;
21802;SDS011;18591;47.080;22.214;2022-07-03T04:27:54;17.20;;;15.45;;
21802;SDS011;18591;47.080;22.214;2022-07-03T04:30:16;18.00;;;14.77;;
21802;SDS011;18591;47.080;22.214;2022-07-03T04:32:18;15.30;;;13.63;;
21802;SDS011;18591;47.080;22.214;2022-07-03T04:34:20;13.77;;;12.23;;
21802;SDS011;18591;47.080;22.214;2022-07-03T04:36:22;12.30;;;11.10;;
21802;SDS011;18591;47.080;22.214;2022-07-03T04:38:24;12.40;;;11.00;;
21802;SDS011;18591;47.080;22.214;2022-07-03T04:40:26;11.65;;;10.45;;
21802;SDS011;18591;47.080;22.214;2022-07-03T04:42:28;11.43;;;10.23;;
21802;SDS011;18591;47.080;22.214;2022-07-03T04:44:30;10.73;;;9.73;;
21802;SDS011;18591;47.080;22.214;2022-07-03T04:46:32;11.20;;;10.10;;
21802;SDS011;18591;47.080;22.214;2022-07-03T04:48:34;12.20;;;10.15;;
21802;SDS011;18591;47.080;22.214;2022-07-03T04:50:36;12.13;;;10.15;;
21802;SDS011;18591;47.080;22.214;2022-07-03T04:52:37;10.13;;;9.13;;
21802;SDS011;18591;47.080;22.214;2022-07-03T04:54:39;11.45;;;10.32;;
21802;SDS011;18591;47.080;22.214;2022-07-03T04:56:41;9.35;;;8.52;;
21802;SDS011;18591;47.080;22.214;2022-07-03T04:58:43;9.93;;;8.88;;
21802;SDS011;18591;47.080;22.214;2022-07-03T05:00:46;9.63;;;8.60;;
21802;SDS011;18591;47.080;22.214;2022-07-03T05:02:48;11.13;;;9.93;;
21802;SDS011;18591;47.080;22.214;2022-07-03T05:04:50;10.55;;;8.88;;
21802;SDS011;18591;47.080;22.214;2022-07-03T05:06:52;10.07;;;9.07;;
21802;SDS011;18591;47.080;22.214;2022-07-03T05:08:53;11.10;;;10.05;;
21802;SDS011;18591;47.080;22.214;2022-07-03T05:10:55;9.45;;;8.55;;
21802;SDS011;18591;47.080;22.214;2022-07-03T05:12:57;11.15;;;9.30;;
21802;SDS011;18591;47.080;22.214;2022-07-03T05:14:59;9.80;;;8.90;;
21802;SDS011;18591;47.080;22.214;2022-07-03T05:17:01;11.73;;;10.63;;
21802;SDS011;18591;47.080;22.214;2022-07-03T05:19:03;10.52;;;9.23;;
21802;SDS011;18591;47.080;22.214;2022-07-03T05:21:06;10.23;;;9.23;;
21802;SDS011;18591;47.080;22.214;2022-07-03T05:23:08;9.48;;;8.57;;
21802;SDS011;18591;47.080;22.214;2022-07-03T05:25:10;12.50;;;9.73;;
21802;SDS011;18591;47.080;22.214;2022-07-03T05:27:11;10.73;;;9.48;;
21802;SDS011;18591;47.080;22.214;2022-07-03T05:29:13;9.40;;;8.57;;
21802;SDS011;18591;47.080;22.214;2022-07-03T05:31:15;9.23;;;8.32;;
21802;SDS011;18591;47.080;22.214;2022-07-03T05:33:17;8.80;;;8.02;;
21802;SDS011;18591;47.080;22.214;2022-07-03T05:35:19;10.95;;;8.82;;
21802;SDS011;18591;47.080;22.214;2022-07-03T05:37:21;10.13;;;9.23;;
21802;SDS011;18591;47.080;22.214;2022-07-03T05:39:23;10.93;;;9.77;;
21802;SDS011;18591;47.080;22.214;2022-07-03T05:41:33;9.98;;;9.07;;
21802;SDS011;18591;47.080;22.214;2022-07-03T05:43:35;11.48;;;9.00;;
21802;SDS011;18591;47.080;22.214;2022-07-03T05:45:37;9.27;;;8.48;;
21802;SDS011;18591;47.080;22.214;2022-07-03T05:47:39;9.63;;;7.97;;
21802;SDS011;18591;47.080;22.214;2022-07-03T05:49:42;9.88;;;8.82;;
21802;SDS011;18591;47.080;22.214;2022-07-03T05:51:44;9.48;;;8.57;;
21802;SDS011;18591;47.080;22.214;2022-07-03T05:53:46;9.52;;;8.60;;
21802;SDS011;18591;47.080;22.214;2022-07-03T05:55:48;9.70;;;8.68;;
21802;SDS011;18591;47.080;22.214;2022-07-03T05:57:50;9.23;;;8.30;;
21802;SDS011;18591;47.080;22.214;2022-07-03T05:59:52;10.60;;;8.75;;
21802;SDS011;18591;47.080;22.214;2022-07-03T06:01:54;9.85;;;8.52;;
21802;SDS011;18591;47.080;22.214;2022-07-03T06:03:56;10.77;;;9.30;;
21802;SDS011;18591;47.080;22.214;2022-07-03T06:05:59;10.25;;;9.25;;
21802;SDS011;18591;47.080;22.214;2022-07-03T06:08:01;12.15;;;9.50;;
21802;SDS011;18591;47.080;22.214;2022-07-03T06:10:04;9.15;;;8.30;;
21802;SDS011;18591;47.080;22.214;2022-07-03T06:12:06;10.60;;;8.75;;
21802;SDS011;18591;47.080;22.214;2022-07-03T06:14:08;10.38;;;9.48;;
21802;SDS011;18591;47.080;22.214;2022-07-03T06:16:10;11.13;;;9.40;;
21802;SDS011;18591;47.080;22.214;2022-07-03T06:18:12;10.48;;;9.48;;
21802;SDS011;18591;47.080;22.214;2022-07-03T06:20:14;10.48;;;9.27;;
21802;SDS011;18591;47.080;22.214;2022-07-03T06:22:16;9.85;;;8.95;;
21802;SDS011;18591;47.080;22.214;2022-07-03T06:24:18;10.80;;;9.80;;
21802;SDS011;18591;47.080;22.214;2022-07-03T06:26:20;9.63;;;8.73;;
21802;SDS011;18591;47.080;22.214;2022-07-03T06:28:22;10.98;;;9.98;;
21802;SDS011;18591;47.080;22.214;2022-07-03T06:30:23;10.68;;;9.63;;
21802;SDS011;18591;47.080;22.214;2022-07-03T06:32:25;10.13;;;9.13;;
21802;SDS011;18591;47.080;22.214;2022-07-03T06:34:28;9.65;;;8.85;;
21802;SDS011;18591;47.080;22.214;2022-07-03T06:36:30;10.85;;;8.98;;
21802;SDS011;18591;47.080;22.214;2022-07-03T06:38:32;10.70;;;9.80;;
21802;SDS011;18591;47.080;22.214;2022-07-03T06:40:34;10.10;;;9.20;;
21802;SDS011;18591;47.080;22.214;2022-07-03T06:42:35;10.35;;;9.45;;
21802;SDS011;18591;47.080;22.214;2022-07-03T06:44:37;10.90;;;9.75;;
21802;SDS011;18591;47.080;22.214;2022-07-03T06:46:39;9.75;;;8.88;;
21802;SDS011;18591;47.080;22.214;2022-07-03T06:48:41;9.63;;;8.57;;
21802;SDS011;18591;47.080;22.214;2022-07-03T06:50:43;11.45;;;9.07;;
21802;SDS011;18591;47.080;22.214;2022-07-03T06:52:46;10.88;;;9.85;;
21802;SDS011;18591;47.080;22.214;2022-07-03T06:54:48;11.50;;;9.18;;
21802;SDS011;18591;47.080;22.214;2022-07-03T06:56:50;9.65;;;8.77;;
21802;SDS011;18591;47.080;22.214;2022-07-03T06:58:52;10.43;;;9.50;;
21802;SDS011;18591;47.080;22.214;2022-07-03T07:00:54;9.20;;;8.30;;
21802;SDS011;18591;47.080;22.214;2022-07-03T07:02:56;9.93;;;8.90;;
21802;SDS011;18591;47.080;22.214;2022-07-03T07:05:00;9.85;;;8.70;;
21802;SDS011;18591;47.080;22.214;2022-07-03T07:07:02;9.73;;;8.75;;
21802;SDS011;18591;47.080;22.214;2022-07-03T07:09:04;10.80;;;9.07;;
21802;SDS011;18591;47.080;22.214;2022-07-03T07:11:06;9.95;;;9.02;;
21802;SDS011;18591;47.080;22.214;2022-07-03T07:13:08;9.77;;;8.50;;
21802;SDS011;18591;47.080;22.214;2022-07-03T07:15:10;9.70;;;8.60;;
21802;SDS011;18591;47.080;22.214;2022-07-03T07:17:12;12.32;;;7.85;;
21802;SDS011;18591;47.080;22.214;2022-07-03T07:19:14;9.10;;;8.27;;
21802;SDS011;18591;47.080;22.214;2022-07-03T07:21:16;9.13;;;8.43;;
21802;SDS011;18591;47.080;22.214;2022-07-03T07:23:18;9.40;;;8.60;;
21802;SDS011;18591;47.080;22.214;2022-07-03T07:25:19;9.43;;;8.45;;
21802;SDS011;18591;47.080;22.214;2022-07-03T07:27:22;8.82;;;8.02;;
21802;SDS011;18591;47.080;22.214;2022-07-03T07:29:24;9.00;;;8.20;;
21802;SDS011;18591;47.080;22.214;2022-07-03T07:31:25;9.48;;;8.43;;
21802;SDS011;18591;47.080;22.214;2022-07-03T07:33:27;8.95;;;8.15;;
21802;SDS011;18591;47.080;22.214;2022-07-03T07:35:29;9.25;;;7.78;;
21802;SDS011;18591;47.080;22.214;2022-07-03T07:37:31;10.60;;;8.13;;
21802;SDS011;18591;47.080;22.214;2022-07-03T07:39:33;9.10;;;8.30;;
21802;SDS011;18591;47.080;22.214;2022-07-03T07:41:35;7.97;;;7.20;;
21802;SDS011;18591;47.080;22.214;2022-07-03T07:43:38;8.20;;;7.40;;
21802;SDS011;18591;47.080;22.214;2022-07-03T07:45:40;8.70;;;7.82;;
21802;SDS011;18591;47.080;22.214;2022-07-03T07:47:42;8.20;;;7.50;;
21802;SDS011;18591;47.080;22.214;2022-07-03T07:49:44;9.00;;;8.13;;
21802;SDS011;18591;47.080;22.214;2022-07-03T07:51:46;9.30;;;8.35;;
21802;SDS011;18591;47.080;22.214;2022-07-03T07:53:48;7.47;;;6.82;;
21802;SDS011;18591;47.080;22.214;2022-07-03T07:55:51;11.45;;;8.55;;
21802;SDS011;18591;47.080;22.214;2022-07-03T07:57:53;9.35;;;8.40;;
21802;SDS011;18591;47.080;22.214;2022-07-03T07:59:55;9.00;;;7.45;;
21802;SDS011;18591;47.080;22.214;2022-07-03T08:01:58;8.32;;;7.53;;
21802;SDS011;18591;47.080;22.214;2022-07-03T08:04:18;9.60;;;8.40;;
21802;SDS011;18591;47.080;22.214;2022-07-03T08:06:38;10.93;;;8.38;;
21802;SDS011;18591;47.080;22.214;2022-07-03T08:08:40;8.93;;;8.10;;
21802;SDS011;18591;47.080;22.214;2022-07-03T08:10:46;18.77;;;8.30;;
21802;SDS011;18591;47.080;22.214;2022-07-03T08:12:49;16.23;;;9.88;;
21802;SDS011;18591;47.080;22.214;2022-07-03T08:14:51;10.57;;;8.75;;
21802;SDS011;18591;47.080;22.214;2022-07-03T08:16:53;9.20;;;8.30;;
21802;SDS011;18591;47.080;22.214;2022-07-03T08:18:55;8.75;;;7.85;;
21802;SDS011;18591;47.080;22.214;2022-07-03T08:20:56;8.50;;;7.80;;
21802;SDS011;18591;47.080;22.214;2022-07-03T08:22:58;9.18;;;8.20;;
21802;SDS011;18591;47.080;22.214;2022-07-03T08:25:01;8.35;;;7.65;;
21802;SDS011;18591;47.080;22.214;2022-07-03T08:27:04;8.48;;;7.68;;
21802;SDS011;18591;47.080;22.214;2022-07-03T08:29:06;8.57;;;7.88;;
21802;SDS011;18591;47.080;22.214;2022-07-03T08:31:08;10.15;;;8.73;;
21802;SDS011;18591;47.080;22.214;2022-07-03T08:33:10;9.10;;;8.20;;
21802;SDS011;18591;47.080;22.214;2022-07-03T08:35:12;7.95;;;7.18;;
21802;SDS011;18591;47.080;22.214;2022-07-03T08:37:14;12.15;;;9.07;;
21802;SDS011;18591;47.080;22.214;2022-07-03T08:39:16;10.80;;;8.60;;
21802;SDS011;18591;47.080;22.214;2022-07-03T08:41:18;10.25;;;9.05;;
21802;SDS011;18591;47.080;22.214;2022-07-03T08:43:21;10.07;;;9.10;;
21802;SDS011;18591;47.080;22.214;2022-07-03T08:45:29;9.43;;;8.52;;
21802;SDS011;18591;47.080;22.214;2022-07-03T08:47:34;9.27;;;8.32;;
21802;SDS011;18591;47.080;22.214;2022-07-03T08:49:39;8.98;;;8.15;;
21802;SDS011;18591;47.080;22.214;2022-07-03T08:51:43;10.32;;;8.82;;
21802;SDS011;18591;47.080;22.214;2022-07-03T08:53:47;10.55;;;9.48;;
21802;SDS011;18591;47.080;22.214;2022-07-03T08:55:49;9.70;;;8.80;;
21802;SDS011;18591;47.080;22.214;2022-07-03T08:57:51;10.93;;;9.93;;
21802;SDS011;18591;47.080;22.214;2022-07-03T08:59:57;11.48;;;8.85;;
21802;SDS011;18591;47.080;22.214;2022-07-03T09:02:02;10.80;;;9.70;;
21802;SDS011;18591;47.080;22.214;2022-07-03T09:04:05;10.40;;;9.48;;
21802;SDS011;18591;47.080;22.214;2022-07-03T09:06:13;10.13;;;9.13;;
21802;SDS011;18591;47.080;22.214;2022-07-03T09:08:15;10.05;;;9.15;;
21802;SDS011;18591;47.080;22.214;2022-07-03T09:10:18;12.05;;;9.13;;
21802;SDS011;18591;47.080;22.214;2022-07-03T09:12:20;10.45;;;9.32;;
21802;SDS011;18591;47.080;22.214;2022-07-03T09:14:23;9.20;;;8.40;;
21802;SDS011;18591;47.080;22.214;2022-07-03T09:16:24;10.27;;;9.40;;
21802;SDS011;18591;47.080;22.214;2022-07-03T09:18:40;10.07;;;9.07;;
21802;SDS011;18591;47.080;22.214;2022-07-03T09:20:43;9.13;;;8.25;;
21802;SDS011;18591;47.080;22.214;2022-07-03T09:22:45;8.88;;;7.95;;
21802;SDS011;18591;47.080;22.214;2022-07-03T09:24:51;9.55;;;8.65;;
21802;SDS011;18591;47.080;22.214;2022-07-03T09:26:54;9.02;;;8.18;;
21802;SDS011;18591;47.080;22.214;2022-07-03T09:28:56;10.02;;;9.18;;
21802;SDS011;18591;47.080;22.214;2022-07-03T09:31:01;9.30;;;8.45;;
21802;SDS011;18591;47.080;22.214;2022-07-03T09:33:03;9.02;;;8.23;;
21802;SDS011;18591;47.080;22.214;2022-07-03T09:35:21;9.20;;;8.30;;
21802;SDS011;18591;47.080;22.214;2022-07-03T09:37:25;8.68;;;7.75;;
21802;SDS011;18591;47.080;22.214;2022-07-03T09:39:28;8.30;;;7.60;;
21802;SDS011;18591;47.080;22.214;2022-07-03T09:44:00;7.90;;;7.30;;
21802;SDS011;18591;47.080;22.214;2022-07-03T09:46:02;8.60;;;7.80;;
21802;SDS011;18591;47.080;22.214;2022-07-03T09:48:04;9.38;;;8.48;;
21802;SDS011;18591;47.080;22.214;2022-07-03T09:50:34;8.43;;;7.63;;
21802;SDS011;18591;47.080;22.214;2022-07-03T09:54:48;7.72;;;6.90;;
21802;SDS011;18591;47.080;22.214;2022-07-03T09:56:50;9.07;;;7.95;;
21802;SDS011;18591;47.080;22.214;2022-07-03T09:58:58;7.97;;;7.25;;
21802;SDS011;18591;47.080;22.214;2022-07-03T10:01:16;7.25;;;6.65;;
21802;SDS011;18591;47.080;22.214;2022-07-03T10:03:22;7.80;;;7.00;;
21802;SDS011;18591;47.080;22.214;2022-07-03T10:05:25;8.27;;;7.32;;
21802;SDS011;18591;47.080;22.214;2022-07-03T10:07:31;7.90;;;7.20;;
21802;SDS011;18591;47.080;22.214;2022-07-03T10:09:50;11.65;;;6.65;;
21802;SDS011;18591;47.080;22.214;2022-07-03T10:11:52;7.07;;;6.47;;
21802;SDS011;18591;47.080;22.214;2022-07-03T10:13:55;7.78;;;6.78;;
21802;SDS011;18591;47.080;22.214;2022-07-03T10:15:57;6.90;;;6.20;;
21802;SDS011;18591;47.080;22.214;2022-07-03T10:18:00;9.35;;;7.15;;
21802;SDS011;18591;47.080;22.214;2022-07-03T10:20:05;7.35;;;6.53;;
21802;SDS011;18591;47.080;22.214;2022-07-03T10:22:15;8.45;;;6.85;;
21802;SDS011;18591;47.080;22.214;2022-07-03T10:24:23;7.00;;;6.30;;
21802;SDS011;18591;47.080;22.214;2022-07-03T10:26:27;8.60;;;7.15;;
21802;SDS011;18591;47.080;22.214;2022-07-03T10:28:29;6.97;;;6.32;;
21802;SDS011;18591;47.080;22.214;2022-07-03T10:30:32;7.88;;;7.07;;
21802;SDS011;18591;47.080;22.214;2022-07-03T10:32:35;8.55;;;6.72;;
21802;SDS011;18591;47.080;22.214;2022-07-03T10:34:40;7.18;;;6.60;;
21802;SDS011;18591;47.080;22.214;2022-07-03T10:37:02;9.32;;;6.80;;
21802;SDS011;18591;47.080;22.214;2022-07-03T10:39:05;7.82;;;6.80;;
21802;SDS011;18591;47.080;22.214;2022-07-03T10:43:44;9.00;;;7.20;;
21802;SDS011;18591;47.080;22.214;2022-07-03T10:48:11;8.05;;;6.68;;
21802;SDS011;18591;47.080;22.214;2022-07-03T10:50:16;8.18;;;6.45;;
21802;SDS011;18591;47.080;22.214;2022-07-03T10:52:22;7.93;;;7.13;;
21802;SDS011;18591;47.080;22.214;2022-07-03T10:54:28;6.47;;;5.88;;
21802;SDS011;18591;47.080;22.214;2022-07-03T10:56:32;7.28;;;6.65;;
21802;SDS011;18591;47.080;22.214;2022-07-03T10:58:56;7.65;;;6.85;;
21802;SDS011;18591;47.080;22.214;2022-07-03T11:00:59;8.65;;;6.68;;
21802;SDS011;18591;47.080;22.214;2022-07-03T11:03:01;7.28;;;6.68;;
21802;SDS011;18591;47.080;22.214;2022-07-03T11:07:19;7.10;;;6.40;;
21802;SDS011;18591;47.080;22.214;2022-07-03T11:09:20;7.13;;;6.53;;
21802;SDS011;18591;47.080;22.214;2022-07-03T11:16:22;7.03;;;6.43;;
21802;SDS011;18591;47.080;22.214;2022-07-03T11:18:34;6.63;;;6.03;;
21802;SDS011;18591;47.080;22.214;2022-07-03T11:20:37;8.77;;;6.32;;
21802;SDS011;18591;47.080;22.214;2022-07-03T11:22:50;7.13;;;6.35;;
21802;SDS011;18591;47.080;22.214;2022-07-03T11:24:57;8.25;;;6.15;;
21802;SDS011;18591;47.080;22.214;2022-07-03T11:27:11;6.50;;;5.53;;
21802;SDS011;18591;47.080;22.214;2022-07-03T11:29:25;6.72;;;6.13;;
21802;SDS011;18591;47.080;22.214;2022-07-03T11:31:28;5.28;;;4.88;;
21802;SDS011;18591;47.080;22.214;2022-07-03T11:35:53;7.22;;;6.10;;
21802;SDS011;18591;47.080;22.214;2022-07-03T11:37:55;5.68;;;5.18;;
21802;SDS011;18591;47.080;22.214;2022-07-03T11:39:59;6.65;;;6.03;;
21802;SDS011;18591;47.080;22.214;2022-07-03T11:42:04;6.00;;;5.50;;
21802;SDS011;18591;47.080;22.214;2022-07-03T11:44:07;9.75;;;5.63;;
21802;SDS011;18591;47.080;22.214;2022-07-03T11:46:09;6.65;;;5.90;;
21802;SDS011;18591;47.080;22.214;2022-07-03T11:48:12;7.72;;;5.55;;
21802;SDS011;18591;47.080;22.214;2022-07-03T11:50:16;7.82;;;6.00;;
21802;SDS011;18591;47.080;22.214;2022-07-03T11:52:31;6.35;;;5.72;;
21802;SDS011;18591;47.080;22.214;2022-07-03T11:54:50;9.70;;;5.95;;
21802;SDS011;18591;47.080;22.214;2022-07-03T11:56:53;8.90;;;5.30;;
21802;SDS011;18591;47.080;22.214;2022-07-03T11:58:56;5.82;;;5.32;;
21802;SDS011;18591;47.080;22.214;2022-07-03T12:01:00;6.55;;;5.40;;
21802;SDS011;18591;47.080;22.214;2022-07-03T12:03:01;6.15;;;5.60;;
21802;SDS011;18591;47.080;22.214;2022-07-03T12:05:22;6.38;;;5.45;;
21802;SDS011;18591;47.080;22.214;2022-07-03T12:07:24;5.75;;;5.25;;
21802;SDS011;18591;47.080;22.214;2022-07-03T12:09:29;5.68;;;5.00;;
21802;SDS011;18591;47.080;22.214;2022-07-03T12:11:34;7.10;;;4.32;;
21802;SDS011;18591;47.080;22.214;2022-07-03T12:13:37;5.43;;;4.60;;
21802;SDS011;18591;47.080;22.214;2022-07-03T12:15:39;6.00;;;4.38;;
21802;SDS011;18591;47.080;22.214;2022-07-03T12:17:43;5.30;;;4.75;;
21802;SDS011;18591;47.080;22.214;2022-07-03T12:19:47;5.57;;;5.07;;
21802;SDS011;18591;47.080;22.214;2022-07-03T12:21:50;7.72;;;5.20;;
21802;SDS011;18591;47.080;22.214;2022-07-03T12:23:53;6.85;;;4.43;;
21802;SDS011;18591;47.080;22.214;2022-07-03T12:25:56;7.43;;;5.20;;
21802;SDS011;18591;47.080;22.214;2022-07-03T12:27:58;6.20;;;4.93;;
21802;SDS011;18591;47.080;22.214;2022-07-03T12:30:00;5.13;;;4.65;;
21802;SDS011;18591;47.080;22.214;2022-07-03T12:32:02;6.13;;;5.10;;
21802;SDS011;18591;47.080;22.214;2022-07-03T12:34:11;6.03;;;5.43;;
21802;SDS011;18591;47.080;22.214;2022-07-03T12:36:13;6.28;;;4.82;;
21802;SDS011;18591;47.080;22.214;2022-07-03T12:38:36;7.72;;;5.55;;
21802;SDS011;18591;47.080;22.214;2022-07-03T12:40:38;5.22;;;4.57;;
21802;SDS011;18591;47.080;22.214;2022-07-03T12:42:43;5.80;;;4.32;;
21802;SDS011;18591;47.080;22.214;2022-07-03T12:45:01;6.32;;;4.25;;
21802;SDS011;18591;47.080;22.214;2022-07-03T12:47:04;5.97;;;4.28;;
21802;SDS011;18591;47.080;22.214;2022-07-03T12:49:10;4.57;;;4.18;;
21802;SDS011;18591;47.080;22.214;2022-07-03T12:51:13;4.97;;;4.22;;
21802;SDS011;18591;47.080;22.214;2022-07-03T12:53:28;5.90;;;4.43;;
21802;SDS011;18591;47.080;22.214;2022-07-03T12:55:31;6.60;;;4.45;;
21802;SDS011;18591;47.080;22.214;2022-07-03T12:57:33;5.60;;;4.25;;
21802;SDS011;18591;47.080;22.214;2022-07-03T13:02:08;6.78;;;4.10;;